createdAt,value
2019-05-06T00:01:34.238Z,3.10
2019-05-06T00:04:04.837Z,3.30
2019-05-06T00:06:34.640Z,3.40
2019-05-06T00:09:04.835Z,3.07
2019-05-06T00:11:45.749Z,3.50
2019-05-06T00:14:14.579Z,3.23
2019-05-06T00:16:44.066Z,3.10
2019-05-06T00:19:13.866Z,3.10
2019-05-06T00:21:44.339Z,3.57
2019-05-06T00:24:14.546Z,3.43
2019-05-06T00:26:59.557Z,3.30
2019-05-06T00:29:47.565Z,3.00
2019-05-06T00:32:16.526Z,3.53
2019-05-06T00:34:45.534Z,3.30
2019-05-06T00:37:14.744Z,3.60
2019-05-06T00:39:55.446Z,3.50
2019-05-06T00:42:34.376Z,3.27
2019-05-06T00:45:25.003Z,3.10
2019-05-06T00:47:44.373Z,3.53
2019-05-06T00:50:14.363Z,2.93
2019-05-06T00:52:44.703Z,4.17
2019-05-06T00:55:13.859Z,3.40
2019-05-06T00:57:46.012Z,3.70
2019-05-06T01:00:24.526Z,3.30
2019-05-06T01:02:54.256Z,3.80
2019-05-06T01:05:24.413Z,3.50
2019-05-06T01:07:54.929Z,3.60
2019-05-06T01:10:24.297Z,3.40
2019-05-06T01:13:01.577Z,3.47
2019-05-06T01:15:31.002Z,3.77
2019-05-06T01:17:59.892Z,3.20
2019-05-06T01:20:28.972Z,3.30
2019-05-06T01:22:58.114Z,3.50
2019-05-06T01:25:27.277Z,3.50
2019-05-06T01:27:56.196Z,4.13
2019-05-06T01:30:25.235Z,3.50
2019-05-06T01:32:54.503Z,3.53
2019-05-06T01:35:24.489Z,3.40
2019-05-06T01:38:14.580Z,3.37
2019-05-06T01:41:08.172Z,3.90
2019-05-06T01:43:37.482Z,3.73
2019-05-06T01:46:06.310Z,3.60
2019-05-06T01:48:47.448Z,3.67
2019-05-06T01:51:17.531Z,3.50
2019-05-06T01:53:46.423Z,3.80
2019-05-06T01:56:15.483Z,4.67
2019-05-06T01:58:44.438Z,3.97
2019-05-06T02:01:14.822Z,3.80
2019-05-06T02:03:44.350Z,4.37
2019-05-06T02:06:14.058Z,4.03
2019-05-06T02:08:44.790Z,4.13
2019-05-06T02:11:15.822Z,4.10
2019-05-06T02:13:44.959Z,4.27
2019-05-06T02:16:14.632Z,3.77
2019-05-06T02:18:44.930Z,3.93
2019-05-06T02:21:19.443Z,4.00
2019-05-06T02:23:53.501Z,3.40
2019-05-06T02:26:23.901Z,4.10
2019-05-06T02:28:54.639Z,3.63
2019-05-06T02:31:41.377Z,3.60
2019-05-06T02:34:15.446Z,3.40
2019-05-06T02:36:58.533Z,3.80
2019-05-06T02:39:27.639Z,3.17
2019-05-06T02:41:56.797Z,3.60
2019-05-06T02:44:25.670Z,3.33
2019-05-06T02:47:02.949Z,3.90
2019-05-06T02:49:39.278Z,3.93
2019-05-06T02:52:08.146Z,3.67
2019-05-06T02:54:36.965Z,3.53
2019-05-06T02:57:05.973Z,3.47
2019-05-06T02:59:34.776Z,3.80
2019-05-06T03:02:03.784Z,3.63
2019-05-06T03:04:33.348Z,3.33
2019-05-06T03:07:03.763Z,3.57
2019-05-06T03:09:33.993Z,4.00
2019-05-06T03:12:03.756Z,3.53
2019-05-06T03:14:34.703Z,3.60
2019-05-06T03:17:03.836Z,3.40
2019-05-06T03:19:34.416Z,3.70
2019-05-06T03:22:24.022Z,4.53
2019-05-06T03:25:06.388Z,4.37
2019-05-06T03:27:33.123Z,3.97
2019-05-06T03:30:04.031Z,4.37
2019-05-06T03:32:41.177Z,3.57
2019-05-06T03:35:24.829Z,4.00
2019-05-06T03:37:34.954Z,3.90
2019-05-06T03:40:04.040Z,3.80
2019-05-06T03:42:33.519Z,3.93
2019-05-06T03:45:07.221Z,3.90
2019-05-06T03:47:54.324Z,4.10
2019-05-06T03:50:24.149Z,4.20
2019-05-06T03:52:56.210Z,4.20
2019-05-06T03:55:24.616Z,4.00
2019-05-06T03:57:55.919Z,3.77
2019-05-06T04:00:25.222Z,4.03
2019-05-06T04:02:54.079Z,3.30
2019-05-06T04:05:23.956Z,4.07
2019-05-06T04:07:54.701Z,3.93
2019-05-06T04:10:23.731Z,4.47
2019-05-06T04:12:53.939Z,3.87
2019-05-06T04:15:26.652Z,4.60
2019-05-06T04:17:58.815Z,4.07
2019-05-06T04:20:53.246Z,4.30
2019-05-06T04:23:43.674Z,4.27
2019-05-06T04:26:25.269Z,3.90
2019-05-06T04:28:54.558Z,4.53
2019-05-06T04:31:23.503Z,4.00
2019-05-06T04:34:08.844Z,4.10
2019-05-06T04:36:23.918Z,4.33
2019-05-06T04:38:53.934Z,4.20
2019-05-06T04:41:26.623Z,3.80
2019-05-06T04:43:54.247Z,4.73
2019-05-06T04:46:23.837Z,4.33
2019-05-06T04:48:53.929Z,4.03
2019-05-06T04:51:24.833Z,4.50
2019-05-06T04:53:54.751Z,4.27
2019-05-06T04:56:23.990Z,4.30
2019-05-06T04:58:53.985Z,4.40
2019-05-06T05:01:23.460Z,3.80
2019-05-06T05:03:53.972Z,4.20
2019-05-06T05:06:23.274Z,4.83
2019-05-06T05:08:53.351Z,4.07
2019-05-06T05:11:37.261Z,4.00
2019-05-06T05:14:26.260Z,4.47
2019-05-06T05:17:06.337Z,3.80
2019-05-06T05:19:35.565Z,3.90
2019-05-06T05:22:07.652Z,4.27
2019-05-06T05:24:38.186Z,3.83
2019-05-06T05:27:07.545Z,4.00
2019-05-06T05:29:36.648Z,7.77
2019-05-06T05:32:05.740Z,8.27
2019-05-06T05:34:39.888Z,7.70
2019-05-06T05:37:05.460Z,6.70
2019-05-06T05:39:34.442Z,7.17
2019-05-06T05:42:12.505Z,5.30
2019-05-06T05:44:43.144Z,4.57
2019-05-06T05:47:12.443Z,5.43
2019-05-06T05:49:58.979Z,5.40
2019-05-06T05:52:28.361Z,3.70
2019-05-06T05:54:57.350Z,3.90
2019-05-06T05:57:26.223Z,3.83
2019-05-06T05:59:55.157Z,3.83
2019-05-06T06:02:28.545Z,3.73
2019-05-06T06:04:57.931Z,3.80
2019-05-06T06:07:26.797Z,3.53
2019-05-06T06:10:09.150Z,3.97
2019-05-06T06:12:38.041Z,3.63
2019-05-06T06:15:26.130Z,3.70
2019-05-06T06:18:22.318Z,3.53
2019-05-06T06:21:17.078Z,3.87
2019-05-06T06:23:36.574Z,3.77
2019-05-06T06:26:05.613Z,3.30
2019-05-06T06:28:34.598Z,3.67
2019-05-06T06:31:23.137Z,4.20
2019-05-06T06:33:55.393Z,3.40
2019-05-06T06:36:34.496Z,3.10
2019-05-06T06:39:13.569Z,3.33
2019-05-06T06:41:42.492Z,3.33
2019-05-06T06:44:14.740Z,3.50
2019-05-06T06:46:43.776Z,3.77
2019-05-06T06:49:12.824Z,3.50
2019-05-06T06:51:42.607Z,4.00
2019-05-06T06:54:12.330Z,3.40
2019-05-06T06:57:03.232Z,3.73
2019-05-06T06:59:26.827Z,3.40
2019-05-06T07:02:04.695Z,4.00
2019-05-06T07:04:38.487Z,3.93
2019-05-06T07:07:07.470Z,3.70
2019-05-06T07:09:37.124Z,3.10
2019-05-06T07:12:06.237Z,3.67
2019-05-06T07:14:36.183Z,3.60
2019-05-06T07:17:05.317Z,3.33
2019-05-06T07:19:39.156Z,3.70
2019-05-06T07:22:08.160Z,3.37
2019-05-06T07:24:37.159Z,2.70
2019-05-06T07:27:14.412Z,2.27
2019-05-06T07:29:48.256Z,2.70
2019-05-06T07:32:14.037Z,2.30
2019-05-06T07:34:43.161Z,2.50
2019-05-06T07:37:12.613Z,2.90
2019-05-06T07:39:43.147Z,2.37
2019-05-06T07:42:18.162Z,2.50
2019-05-06T07:45:12.675Z,2.60
2019-05-06T07:47:54.178Z,2.40
2019-05-06T07:50:23.203Z,2.20
2019-05-06T07:53:07.356Z,2.67
2019-05-06T07:55:37.231Z,2.80
2019-05-06T07:58:06.528Z,2.63
2019-05-06T08:00:35.658Z,2.07
2019-05-06T08:03:04.675Z,2.30
2019-05-06T08:05:33.540Z,2.23
2019-05-06T08:08:03.444Z,2.70
2019-05-06T08:10:33.363Z,2.70
2019-05-06T08:13:02.937Z,2.53
2019-05-06T08:15:32.770Z,3.00
2019-05-06T08:18:03.349Z,2.60
2019-05-06T08:20:38.712Z,2.73
2019-05-06T08:23:34.426Z,2.40
2019-05-06T08:26:12.570Z,2.77
2019-05-06T08:28:40.556Z,2.90
2019-05-06T08:31:04.648Z,2.50
2019-05-06T08:33:33.483Z,3.13
2019-05-06T08:36:11.532Z,3.30
2019-05-06T08:38:55.605Z,2.70
2019-05-06T08:41:24.515Z,2.90
2019-05-06T08:43:53.375Z,2.30
2019-05-06T08:46:23.508Z,2.60
2019-05-06T08:48:52.857Z,2.67
2019-05-06T08:51:45.881Z,2.33
2019-05-06T08:54:22.726Z,2.17
2019-05-06T08:56:53.128Z,2.30
2019-05-06T08:59:23.851Z,2.23
2019-05-06T09:01:53.348Z,2.00
2019-05-06T09:04:22.951Z,2.23
2019-05-06T09:06:53.386Z,2.03
2019-05-06T09:09:22.643Z,2.20
2019-05-06T09:11:53.425Z,2.23
2019-05-06T09:14:23.234Z,2.57
2019-05-06T09:16:53.997Z,2.37
2019-05-06T09:19:23.512Z,2.00
2019-05-06T09:21:53.281Z,2.20
2019-05-06T09:24:23.026Z,2.40
2019-05-06T09:27:12.287Z,2.23
2019-05-06T09:29:47.241Z,2.30
2019-05-06T09:32:23.059Z,2.00
2019-05-06T09:34:56.823Z,2.13
2019-05-06T09:37:25.700Z,2.10
2019-05-06T09:39:54.806Z,1.90
2019-05-06T09:42:23.749Z,2.00
2019-05-06T09:44:54.195Z,2.03
2019-05-06T09:47:32.847Z,2.80
2019-05-06T09:50:02.767Z,2.73
2019-05-06T09:52:33.317Z,3.27
2019-05-06T09:55:33.186Z,2.97
2019-05-06T09:58:03.798Z,2.50
2019-05-06T10:00:34.407Z,2.20
2019-05-06T10:03:03.905Z,2.20
2019-05-06T10:05:33.942Z,1.97
2019-05-06T10:08:03.378Z,1.80
2019-05-06T10:10:32.879Z,1.90
2019-05-06T10:13:02.764Z,2.30
2019-05-06T10:15:32.541Z,2.00
2019-05-06T10:18:07.826Z,1.70
2019-05-06T10:20:38.158Z,2.07
2019-05-06T10:23:07.276Z,1.93
2019-05-06T10:25:36.299Z,1.90
2019-05-06T10:28:08.202Z,1.83
2019-05-06T10:30:37.202Z,1.70
2019-05-06T10:33:09.124Z,1.90
2019-05-06T10:35:38.002Z,1.87
2019-05-06T10:38:24.649Z,1.50
2019-05-06T10:41:03.948Z,1.97
2019-05-06T10:43:40.052Z,1.77
2019-05-06T10:46:09.029Z,1.70
2019-05-06T10:48:37.963Z,1.90
2019-05-06T10:51:17.032Z,1.60
2019-05-06T10:53:45.074Z,1.90
2019-05-06T10:56:32.142Z,1.70
2019-05-06T10:59:02.422Z,1.80
2019-05-06T11:01:35.496Z,1.70
2019-05-06T11:04:04.441Z,1.80
2019-05-06T11:06:33.779Z,1.73
2019-05-06T11:09:03.348Z,1.50
2019-05-06T11:11:38.201Z,1.73
2019-05-06T11:14:03.920Z,1.80
2019-05-06T11:16:33.419Z,2.00
2019-05-06T11:19:05.077Z,1.60
2019-05-06T11:21:32.972Z,1.50
2019-05-06T11:24:06.023Z,1.47
2019-05-06T11:26:32.607Z,1.50
2019-05-06T11:29:09.721Z,1.57
2019-05-06T11:31:55.466Z,1.00
2019-05-06T11:34:41.938Z,1.33
2019-05-06T11:37:47.036Z,1.20
2019-05-06T11:40:09.443Z,1.33
2019-05-06T11:42:38.414Z,1.53
2019-05-06T11:45:08.261Z,1.60
2019-05-06T11:47:37.067Z,1.63
2019-05-06T11:50:07.229Z,1.63
2019-05-06T11:52:36.104Z,1.63
2019-05-06T11:55:05.406Z,1.70
2019-05-06T11:57:34.374Z,1.47
2019-05-06T12:00:03.968Z,1.67
2019-05-06T12:02:33.434Z,1.43
2019-05-06T12:05:05.781Z,1.80
2019-05-06T12:07:34.658Z,1.70
2019-05-06T12:10:44.942Z,1.90
2019-05-06T12:13:14.007Z,1.30
2019-05-06T12:15:42.869Z,1.40
2019-05-06T12:18:12.475Z,1.57
2019-05-06T12:20:42.588Z,1.80
2019-05-06T12:23:15.265Z,1.20
2019-05-06T12:25:45.397Z,1.47
2019-05-06T12:28:12.774Z,1.40
2019-05-06T12:30:42.761Z,1.57
2019-05-06T12:33:36.597Z,1.47
2019-05-06T12:36:20.999Z,1.77
2019-05-06T12:39:09.256Z,1.77
2019-05-06T12:41:55.604Z,1.60
2019-05-06T12:44:24.726Z,1.73
2019-05-06T12:47:27.684Z,1.50
2019-05-06T12:49:56.571Z,1.43
2019-05-06T12:52:25.427Z,1.57
2019-05-06T12:55:12.980Z,1.80
2019-05-06T12:57:25.029Z,1.60
2019-05-06T12:59:53.840Z,1.50
2019-05-06T13:02:23.778Z,1.50
2019-05-06T13:04:59.828Z,1.63
2019-05-06T13:07:29.510Z,1.53
2019-05-06T13:09:58.338Z,1.50
2019-05-06T13:12:28.951Z,1.77
2019-05-06T13:14:58.959Z,1.30
2019-05-06T13:17:32.769Z,1.70
2019-05-06T13:20:01.625Z,1.50
2019-05-06T13:22:41.671Z,1.60
2019-05-06T13:25:13.547Z,1.50
2019-05-06T13:27:42.907Z,1.30
2019-05-06T13:30:12.908Z,1.27
2019-05-06T13:32:45.584Z,1.40
2019-05-06T13:35:14.652Z,1.33
2019-05-06T13:37:43.466Z,1.43
2019-05-06T13:40:12.561Z,1.27
2019-05-06T13:42:47.766Z,1.70
2019-05-06T13:45:16.869Z,1.67
2019-05-06T13:48:03.849Z,1.40
2019-05-06T13:50:34.158Z,1.60
2019-05-06T13:53:11.183Z,1.73
2019-05-06T13:55:36.463Z,1.47
2019-05-06T13:58:05.636Z,1.90
2019-05-06T14:00:35.851Z,1.77
2019-05-06T14:03:04.768Z,1.30
2019-05-06T14:05:34.691Z,1.60
2019-05-06T14:08:04.811Z,1.60
2019-05-06T14:10:33.813Z,1.40
2019-05-06T14:13:02.605Z,1.40
2019-05-06T14:15:32.562Z,1.60
2019-05-06T14:18:02.644Z,1.37
2019-05-06T14:20:33.545Z,1.47
2019-05-06T14:23:02.387Z,1.73
2019-05-06T14:25:43.354Z,1.63
2019-05-06T14:28:25.107Z,1.70
2019-05-06T14:30:57.765Z,1.30
2019-05-06T14:33:26.586Z,1.60
2019-05-06T14:35:55.421Z,1.10
2019-05-06T14:38:24.770Z,1.20
2019-05-06T14:41:08.157Z,1.30
2019-05-06T14:43:35.966Z,1.20
2019-05-06T14:46:04.899Z,1.27
2019-05-06T14:48:33.887Z,1.53
2019-05-06T14:51:02.778Z,1.50
2019-05-06T14:53:32.997Z,1.30
2019-05-06T14:56:06.903Z,1.63
2019-05-06T14:58:35.695Z,1.43
2019-05-06T15:01:04.577Z,1.33
2019-05-06T15:03:33.418Z,1.60
2019-05-06T15:06:02.723Z,1.43
2019-05-06T15:08:32.207Z,1.30
2019-05-06T15:11:05.213Z,1.47
2019-05-06T15:13:39.354Z,1.50
2019-05-06T15:16:13.207Z,1.40
2019-05-06T15:18:43.032Z,1.50
2019-05-06T15:21:30.032Z,1.40
2019-05-06T15:23:42.514Z,1.30
2019-05-06T15:26:12.253Z,1.20
2019-05-06T15:28:42.602Z,1.40
2019-05-06T15:31:18.500Z,1.10
2019-05-06T15:33:49.540Z,1.40
2019-05-06T15:36:27.050Z,1.27
2019-05-06T15:38:55.897Z,1.40
2019-05-06T15:41:25.247Z,1.47
2019-05-06T15:43:54.027Z,1.70
2019-05-06T15:46:22.944Z,1.57
2019-05-06T15:48:52.955Z,1.20
2019-05-06T15:51:34.470Z,1.40
2019-05-06T15:54:05.279Z,1.33
2019-05-06T15:56:35.193Z,1.50
2019-05-06T15:59:06.621Z,1.73
2019-05-06T16:01:35.635Z,1.50
2019-05-06T16:04:04.814Z,1.63
2019-05-06T16:06:34.723Z,1.50
2019-05-06T16:09:05.200Z,1.57
2019-05-06T16:11:34.527Z,1.70
2019-05-06T16:27:51.081Z,1.80
2019-05-06T16:30:19.421Z,1.53
2019-05-06T16:33:08.951Z,1.80
2019-05-06T16:35:37.987Z,2.30
2019-05-06T16:38:07.075Z,1.87
2019-05-06T16:41:09.373Z,1.80
2019-05-06T16:43:26.222Z,1.30
2019-05-06T16:45:55.286Z,1.63
2019-05-06T16:48:24.284Z,1.60
2019-05-06T16:50:53.202Z,1.63
2019-05-06T16:53:22.986Z,2.13
2019-05-06T16:56:22.047Z,1.90
2019-05-06T16:58:53.854Z,1.50
2019-05-06T17:01:27.235Z,1.70
2019-05-06T17:04:14.255Z,1.40
2019-05-06T17:06:43.124Z,1.43
2019-05-06T17:09:20.842Z,1.40
2019-05-06T17:12:02.787Z,1.70
2019-05-06T17:14:32.514Z,1.43
2019-05-06T17:17:03.290Z,1.60
2019-05-06T17:19:37.065Z,1.53
2019-05-06T17:22:06.224Z,1.40
2019-05-06T17:24:35.262Z,1.40
2019-05-06T17:27:04.646Z,1.23
2019-05-06T17:29:58.915Z,1.43
2019-05-06T17:32:41.906Z,1.60
2019-05-06T17:35:12.632Z,1.10
2019-05-06T17:38:02.259Z,1.30
2019-05-06T17:40:43.355Z,1.80
2019-05-06T17:43:13.049Z,1.30
2019-05-06T17:45:58.492Z,1.20
2019-05-06T17:48:31.197Z,1.10
2019-05-06T17:51:13.303Z,1.47
2019-05-06T17:54:01.834Z,1.23
2019-05-06T17:56:31.083Z,1.20
2019-05-06T17:59:00.138Z,1.10
2019-05-06T18:01:54.606Z,1.23
2019-05-06T18:04:23.569Z,1.30
2019-05-06T18:07:12.826Z,1.20
2019-05-06T18:09:42.617Z,1.20
2019-05-06T18:12:12.203Z,1.23
2019-05-06T18:14:43.536Z,1.30
2019-05-06T18:17:12.595Z,1.00
2019-05-06T18:19:41.800Z,1.20
2019-05-06T18:22:12.969Z,1.43
2019-05-06T18:24:42.478Z,1.13
2019-05-06T18:27:13.060Z,1.70
2019-05-06T18:30:13.405Z,1.30
2019-05-06T18:32:33.322Z,1.10
2019-05-06T18:35:02.818Z,1.47
2019-05-06T18:37:33.125Z,1.60
2019-05-06T18:40:02.495Z,1.37
2019-05-06T18:42:32.977Z,1.10
2019-05-06T18:45:02.853Z,1.13
2019-05-06T18:47:33.012Z,1.30
2019-05-06T18:50:14.813Z,1.10
2019-05-06T18:52:43.774Z,1.10
2019-05-06T18:55:12.836Z,1.13
2019-05-06T18:57:42.309Z,1.30
2019-05-06T19:00:12.296Z,1.30
2019-05-06T19:02:42.340Z,1.40
2019-05-06T19:05:17.005Z,1.30
2019-05-06T19:07:46.913Z,1.00
2019-05-06T19:10:37.956Z,1.17
2019-05-06T19:13:08.660Z,1.50
2019-05-06T19:15:38.282Z,1.87
2019-05-06T19:18:08.720Z,1.70
2019-05-06T19:20:37.686Z,1.50
2019-05-06T19:23:06.769Z,1.30
2019-05-06T19:25:35.718Z,1.50
2019-05-06T19:28:04.921Z,1.20
2019-05-06T19:30:34.047Z,1.50
2019-05-06T19:33:03.231Z,1.60
2019-05-06T19:35:55.377Z,1.90
2019-05-06T19:38:15.740Z,1.50
2019-05-06T19:40:44.643Z,1.77
2019-05-06T19:43:13.573Z,1.50
2019-05-06T19:45:42.539Z,1.70
2019-05-06T19:48:13.386Z,1.70
2019-05-06T19:50:42.562Z,1.47
2019-05-06T19:53:11.855Z,1.67
2019-05-06T19:55:43.612Z,1.23
2019-05-06T19:58:12.971Z,1.60
2019-05-06T20:00:42.101Z,1.40
2019-05-06T20:03:26.030Z,1.57
2019-05-06T20:06:13.072Z,2.00
2019-05-06T20:08:52.780Z,1.70
2019-05-06T20:11:27.477Z,1.47
2019-05-06T20:13:56.444Z,1.57
2019-05-06T20:16:25.940Z,1.37
2019-05-06T20:18:55.217Z,1.70
2019-05-06T20:21:24.110Z,1.67
2019-05-06T20:23:52.993Z,1.73
2019-05-06T20:26:22.331Z,1.80
2019-05-06T20:28:53.562Z,2.13
2019-05-06T20:31:23.214Z,1.70
2019-05-06T20:33:52.863Z,1.30
2019-05-06T20:36:22.629Z,1.50
2019-05-06T20:38:51.852Z,1.60
2019-05-06T20:41:22.182Z,1.73
2019-05-06T20:43:51.092Z,1.63
2019-05-06T20:46:21.847Z,1.40
2019-05-06T20:48:52.918Z,1.57
2019-05-06T20:51:21.991Z,1.40
2019-05-06T20:53:50.908Z,1.80
2019-05-06T20:56:21.990Z,1.73
2019-05-06T20:58:52.792Z,1.47
2019-05-06T21:01:21.883Z,1.40
2019-05-06T21:03:52.729Z,1.60
2019-05-06T21:06:22.559Z,1.30
2019-05-06T21:08:53.050Z,1.00
2019-05-06T21:11:28.427Z,1.17
2019-05-06T21:13:52.661Z,1.20
2019-05-06T21:16:22.629Z,1.00
2019-05-06T21:19:47.699Z,1.20
2019-05-06T21:22:16.676Z,1.20
2019-05-06T21:24:45.489Z,1.00
2019-05-06T21:27:14.433Z,1.00
2019-05-06T21:29:43.463Z,1.20
2019-05-06T21:32:12.330Z,1.27
2019-05-06T21:34:43.182Z,1.00
2019-05-06T21:37:12.257Z,1.27
2019-05-06T21:39:42.417Z,1.20
2019-05-06T21:42:12.216Z,1.30
2019-05-06T21:44:42.921Z,1.60
2019-05-06T21:47:11.740Z,1.40
2019-05-06T21:49:42.153Z,1.40
2019-05-06T21:52:13.101Z,1.30
2019-05-06T21:54:43.436Z,1.43
2019-05-06T21:57:12.364Z,1.40
2019-05-06T21:59:42.749Z,1.47
2019-05-06T22:02:13.415Z,1.23
2019-05-06T22:04:43.323Z,1.70
2019-05-06T22:07:12.234Z,1.77
2019-05-06T22:09:43.053Z,1.50
2019-05-06T22:12:11.926Z,1.50
2019-05-06T22:14:42.255Z,1.20
2019-05-06T22:17:11.439Z,1.70
2019-05-06T22:19:40.270Z,1.53
2019-05-06T22:22:12.080Z,1.70
2019-05-06T22:24:57.326Z,1.57
2019-05-06T22:27:22.072Z,1.50
2019-05-06T22:29:52.219Z,1.47
2019-05-06T22:32:23.229Z,1.47
2019-05-06T22:34:52.157Z,1.70
2019-05-06T22:37:22.143Z,1.43
2019-05-06T22:39:52.727Z,1.77
2019-05-06T22:42:22.565Z,1.50
2019-05-06T22:44:52.404Z,1.63
2019-05-06T22:47:23.100Z,1.27
2019-05-06T22:49:54.147Z,1.40
2019-05-06T22:52:22.675Z,1.37
2019-05-06T22:54:52.745Z,1.87
2019-05-06T22:57:23.511Z,1.60
2019-05-06T22:59:52.409Z,1.60
2019-05-06T23:02:36.977Z,2.03
2019-05-06T23:05:07.321Z,1.50
2019-05-06T23:07:36.197Z,1.80
2019-05-06T23:10:05.745Z,1.20
2019-05-06T23:12:34.569Z,1.40
2019-05-06T23:15:03.608Z,2.00
2019-05-06T23:17:34.374Z,1.73
2019-05-06T23:20:03.103Z,1.60
2019-05-06T23:22:32.093Z,1.70
2019-05-06T23:25:02.259Z,1.90
2019-05-06T23:27:31.154Z,1.60
2019-05-06T23:30:00.081Z,1.70
2019-05-06T23:32:29.057Z,1.50
2019-05-06T23:34:57.852Z,1.60
2019-05-06T23:37:25.268Z,2.20
2019-05-06T23:40:35.621Z,1.47
2019-05-06T23:43:42.515Z,2.33
2019-05-06T23:46:46.542Z,1.60
2019-05-06T23:49:52.685Z,1.90
2019-05-06T23:52:57.288Z,2.03
2019-05-06T23:56:02.811Z,2.20
2019-05-06T23:58:32.290Z,1.90
